Time;durP1;ratioP1;P1;durP2;ratioP2;P2;SDS_P1;SDS_P2;PMS_P1;PMS_P2;Temp;Humidity;BMP_temperature;BMP_pressure;BME280_temperature;BME280_humidity;BME280_pressure;Samples;Min_cycle;Max_cycle;Signal;HPM_P1;HPM_P2
2022/02/28 00:02:26;;;;;;;;;;;;;;;0.17;98.94;99865.91;5051641;28;1196;-65
2022/02/28 00:04:53;;;;;;;;;;;;;;;0.17;99.08;99876.78;5051686;28;1886;-65
2022/02/28 00:07:19;;;;;;;;;;;;;;;0.12;99.57;99890.53;5051628;28;1106;-65
2022/02/28 00:09:46;;;;;;;;;;;;;;;0.10;99.22;99879.19;5051588;28;842;-65
2022/02/28 00:12:13;;;;;;;;;;;;;;;0.10;99.63;99879.19;5051647;28;807;-63
2022/02/28 00:14:39;;;;;;;;;;;;;;;0.17;99.67;99882.22;5051504;28;828;-63
2022/02/28 00:17:06;;;;;;;;;;;;;;;0.11;99.63;99874.59;5051663;28;946;-62
2022/02/28 00:19:33;;;;;;;;;;;;;;;0.00;100.00;99866.03;5051666;28;803;-63
2022/02/28 00:21:59;;;;;;;;;;;;;;;-0.03;100.00;99856.59;5051102;28;799;-62
2022/02/28 00:24:26;;;;;;;;;;;;;;;0.00;100.00;99860.59;5051441;28;1886;-62
2022/02/28 00:26:52;;;;;;;;;;;;;;;-0.07;100.00;99861.09;5051360;28;815;-63
2022/02/28 00:29:18;;;;;;;;;;;;;;;-0.09;100.00;99868.78;5051370;28;823;-63
2022/02/28 00:31:45;;;;;;;;;;;;;;;-0.05;100.00;99858.03;5051370;28;867;-62
2022/02/28 00:34:11;;;;;;;;;;;;;;;-0.05;100.00;99852.63;5051351;28;866;-62
2022/02/28 00:36:38;;;;;;;;;;;;;;;-0.02;100.00;99841.09;5051358;28;874;-62
2022/02/28 00:39:04;;;;;;;;;;;;;;;0.03;100.00;99843.63;5050995;28;1419;-64
2022/02/28 00:41:31;;;;;;;;;;;;;;;-0.09;100.00;99874.19;5051292;28;795;-61
2022/02/28 00:43:58;;;;;;;;;;;;;;;-0.14;100.00;99843.72;5051234;28;1989;-62
2022/02/28 00:46:24;;;;;;;;;;;;;;;-0.10;100.00;99848.16;5051212;28;856;-62
2022/02/28 00:48:51;;;;;;;;;;;;;;;-0.19;100.00;99865.63;5051472;28;870;-61
2022/02/28 00:51:17;;;;;;;;;;;;;;;-0.21;100.00;99850.47;5051250;28;862;-60
2022/02/28 00:53:44;;;;;;;;;;;;;;;-0.18;100.00;99853.66;5051137;28;874;-60
2022/02/28 00:56:10;;;;;;;;;;;;;;;-0.22;100.00;99848.88;5051182;28;847;-60
2022/02/28 00:58:37;;;;;;;;;;;;;;;-0.26;100.00;99866.16;5051088;28;807;-62
2022/02/28 01:01:03;;;;;;;;;;;;;;;-0.29;100.00;99840.44;5051341;28;795;-66
2022/02/28 01:03:30;;;;;;;;;;;;;;;-0.24;100.00;99845.69;5050998;28;1949;-63
2022/02/28 01:05:57;;;;;;;;;;;;;;;-0.22;100.00;99824.41;5051076;28;874;-63
2022/02/28 01:08:23;;;;;;;;;;;;;;;-0.19;100.00;99836.56;5050979;28;854;-63
2022/02/28 01:10:49;;;;;;;;;;;;;;;-0.21;100.00;99814.38;5051096;28;812;-60
2022/02/28 01:13:16;;;;;;;;;;;;;;;-0.29;100.00;99824.16;5051011;28;815;-61
2022/02/28 01:15:42;;;;;;;;;;;;;;;-0.27;100.00;99816.47;5050983;28;890;-61
2022/02/28 01:18:09;;;;;;;;;;;;;;;-0.29;100.00;99828.81;5051253;28;946;-60
2022/02/28 01:20:36;;;;;;;;;;;;;;;-0.26;100.00;99817.25;5050949;28;902;-62
2022/02/28 01:23:02;;;;;;;;;;;;;;;-0.26;100.00;99807.19;5050832;28;1886;-62
2022/02/28 01:25:29;;;;;;;;;;;;;;;-0.26;100.00;99820.78;5051213;28;842;-60
2022/02/28 01:27:56;;;;;;;;;;;;;;;-0.28;100.00;99816.78;5050959;28;874;-60
2022/02/28 01:30:23;;;;;;;;;;;;;;;-0.27;100.00;99842.84;5051341;28;890;-60
2022/02/28 01:32:49;;;;;;;;;;;;;;;-0.28;100.00;99809.47;5052112;28;854;-60
2022/02/28 01:35:16;;;;;;;;;;;;;;;-0.26;100.00;99819.97;5054671;28;874;-60
2022/02/28 01:37:43;;;;;;;;;;;;;;;-0.31;100.00;99815.53;5054680;28;851;-60
2022/02/28 01:40:11;;;;;;;;;;;;;;;-0.30;100.00;99806.28;5054339;28;1268;-60
2022/02/28 01:42:38;;;;;;;;;;;;;;;-0.30;100.00;99805.47;5054505;28;1977;-63
2022/02/28 01:45:07;;;;;;;;;;;;;;;-0.26;100.00;99790.88;5054421;28;807;-61
2022/02/28 01:47:35;;;;;;;;;;;;;;;-0.23;100.00;99857.38;5052864;28;1375;-61
2022/02/28 01:50:03;;;;;;;;;;;;;;;-0.22;100.00;99827.13;5054096;28;930;-61
2022/02/28 01:52:29;;;;;;;;;;;;;;;-0.24;100.00;99796.00;5054102;28;840;-61
2022/02/28 01:54:56;;;;;;;;;;;;;;;-0.24;100.00;99813.09;5054093;28;807;-61
2022/02/28 01:57:22;;;;;;;;;;;;;;;-0.24;100.00;99812.28;5053841;28;831;-62
2022/02/28 01:59:49;;;;;;;;;;;;;;;-0.30;100.00;99798.13;5054031;28;787;-61
2022/02/28 02:02:15;;;;;;;;;;;;;;;-0.25;100.00;99795.22;5054012;28;838;-65
2022/02/28 02:04:44;;;;;;;;;;;;;;;-0.24;100.00;99802.22;5053888;28;1918;-64
2022/02/28 02:07:10;;;;;;;;;;;;;;;-0.21;100.00;99782.56;5053803;28;945;-65
2022/02/28 02:09:37;;;;;;;;;;;;;;;-0.22;100.00;99786.38;5053847;28;846;-63
2022/02/28 02:12:06;;;;;;;;;;;;;;;-0.15;100.00;99779.63;5053746;28;807;-63
2022/02/28 02:14:33;;;;;;;;;;;;;;;-0.23;100.00;99765.00;5053695;28;811;-63
2022/02/28 02:16:59;;;;;;;;;;;;;;;-0.24;100.00;99763.41;5053766;28;892;-63
2022/02/28 02:19:25;;;;;;;;;;;;;;;-0.24;100.00;99779.69;5053640;28;847;-62
2022/02/28 02:21:52;;;;;;;;;;;;;;;-0.25;100.00;99759.91;5053657;28;827;-62
2022/02/28 02:24:18;;;;;;;;;;;;;;;-0.27;100.00;99764.06;5053425;28;1882;-61
2022/02/28 02:26:44;;;;;;;;;;;;;;;-0.29;100.00;99774.47;5053415;28;843;-62
2022/02/28 02:29:11;;;;;;;;;;;;;;;-0.30;100.00;99776.41;5053538;28;819;-63
2022/02/28 02:31:37;;;;;;;;;;;;;;;-0.36;100.00;99750.56;5053714;28;853;-63
2022/02/28 02:34:04;;;;;;;;;;;;;;;-0.34;100.00;99767.31;5053613;28;874;-64
2022/02/28 02:36:30;;;;;;;;;;;;;;;-0.29;100.00;99767.13;5053868;28;905;-64
2022/02/28 02:38:56;;;;;;;;;;;;;;;-0.33;100.00;99766.19;5053131;28;1226;-64
2022/02/28 02:41:22;;;;;;;;;;;;;;;-0.36;100.00;99763.31;5053203;28;930;-64
2022/02/28 02:43:49;;;;;;;;;;;;;;;-0.38;100.00;99777.25;5052933;28;1894;-63
2022/02/28 02:46:15;;;;;;;;;;;;;;;-0.33;100.00;99774.31;5053329;28;839;-65
2022/02/28 02:48:42;;;;;;;;;;;;;;;-0.36;100.00;99761.44;5053075;28;887;-66
2022/02/28 02:51:09;;;;;;;;;;;;;;;-0.33;100.00;99760.75;5052983;28;867;-63
2022/02/28 02:53:35;;;;;;;;;;;;;;;-0.35;100.00;99749.41;5052976;28;863;-64
2022/02/28 02:56:02;;;;;;;;;;;;;;;-0.32;100.00;99737.91;5052774;28;812;-69
2022/02/28 02:58:28;;;;;;;;;;;;;;;-0.32;100.00;99743.34;5052861;28;835;-64
2022/02/28 03:00:55;;;;;;;;;;;;;;;-0.28;100.00;99721.72;5052861;28;890;-62
2022/02/28 03:03:22;;;;;;;;;;;;;;;-0.24;100.00;99745.19;5052675;28;1968;-62
2022/02/28 03:05:50;;;;;;;;;;;;;;;-0.25;100.00;99745.53;5052738;28;874;-65
2022/02/28 03:08:17;;;;;;;;;;;;;;;-0.26;100.00;99733.06;5052656;28;878;-65
2022/02/28 03:10:43;;;;;;;;;;;;;;;-0.21;100.00;99708.44;5052630;28;871;-65
2022/02/28 03:13:09;;;;;;;;;;;;;;;-0.23;100.00;99721.53;5052559;28;891;-66
2022/02/28 03:15:35;;;;;;;;;;;;;;;-0.24;99.93;99699.00;5052618;28;953;-72
2022/02/28 03:18:02;;;;;;;;;;;;;;;-0.23;99.54;99686.22;5052344;28;1017;-73
2022/02/28 03:20:28;;;;;;;;;;;;;;;-0.25;99.64;99702.84;5052516;28;871;-65
2022/02/28 03:22:55;;;;;;;;;;;;;;;-0.25;99.80;99700.13;5052529;28;1885;-72
2022/02/28 03:25:21;;;;;;;;;;;;;;;-0.23;99.76;99687.03;5052490;28;827;-67
2022/02/28 03:27:47;;;;;;;;;;;;;;;-0.21;99.60;99678.53;5051001;28;1395;-67
2022/02/28 03:30:13;;;;;;;;;;;;;;;-0.25;99.58;99675.69;5052262;28;894;-67
2022/02/28 03:32:40;;;;;;;;;;;;;;;-0.25;99.76;99699.34;5052273;28;827;-66
2022/02/28 03:35:08;;;;;;;;;;;;;;;-0.22;99.76;99693.25;5052172;28;907;-66
2022/02/28 03:37:35;;;;;;;;;;;;;;;-0.16;99.21;99712.84;5052122;28;854;-64
2022/02/28 03:40:03;;;;;;;;;;;;;;;-0.12;98.68;99692.06;5051918;28;1361;-65
2022/02/28 03:42:30;;;;;;;;;;;;;;;-0.14;98.47;99699.75;5052107;28;823;-66
2022/02/28 03:44:56;;;;;;;;;;;;;;;-0.14;98.90;99718.75;5051898;28;1910;-65
2022/02/28 03:47:23;;;;;;;;;;;;;;;-0.14;98.30;99688.88;5052092;28;792;-67
2022/02/28 03:49:50;;;;;;;;;;;;;;;-0.15;98.84;99700.84;5050649;28;1320;-66
2022/02/28 03:52:16;;;;;;;;;;;;;;;-0.18;98.62;99693.38;5051891;28;925;-66
2022/02/28 03:54:43;;;;;;;;;;;;;;;-0.29;99.02;99684.84;5051654;28;877;-65
2022/02/28 03:57:08;;;;;;;;;;;;;;;-0.21;98.88;99703.00;5051460;28;890;-64
2022/02/28 03:59:34;;;;;;;;;;;;;;;-0.23;98.46;99716.91;5051764;28;853;-63
2022/02/28 04:02:01;;;;;;;;;;;;;;;-0.25;98.79;99712.94;5051731;28;953;-63
2022/02/28 04:04:27;;;;;;;;;;;;;;;-0.28;98.72;99708.97;5051669;28;1882;-65
2022/02/28 04:06:53;;;;;;;;;;;;;;;-0.28;98.74;99740.75;5052006;28;883;-60
2022/02/28 04:09:19;;;;;;;;;;;;;;;-0.31;99.16;99725.13;5051603;28;893;-66
2022/02/28 04:11:45;;;;;;;;;;;;;;;-0.33;99.12;99728.16;5051604;28;910;-64
2022/02/28 04:14:12;;;;;;;;;;;;;;;-0.32;99.00;99746.06;5051548;28;858;-66
2022/02/28 04:16:38;;;;;;;;;;;;;;;-0.37;98.96;99738.09;5051580;28;1024;-64
2022/02/28 04:19:06;;;;;;;;;;;;;;;-0.39;99.35;99732.19;5051729;28;886;-66
2022/02/28 04:21:32;;;;;;;;;;;;;;;-0.40;99.84;99733.34;5051506;28;779;-62
2022/02/28 04:23:59;;;;;;;;;;;;;;;-0.37;99.63;99735.38;5051478;28;1949;-60
2022/02/28 04:26:26;;;;;;;;;;;;;;;-0.41;99.66;99731.72;5050233;28;2468;-64
2022/02/28 04:28:52;;;;;;;;;;;;;;;-0.37;99.57;99769.88;5051861;28;862;-60
2022/02/28 04:31:19;;;;;;;;;;;;;;;-0.42;99.68;99749.16;5051656;28;827;-60
2022/02/28 04:33:46;;;;;;;;;;;;;;;-0.45;99.83;99755.22;5051548;28;834;-61
2022/02/28 04:36:12;;;;;;;;;;;;;;;-0.46;100.00;99746.28;5052129;28;756;-61
2022/02/28 04:38:38;;;;;;;;;;;;;;;-0.44;100.00;99792.13;5051306;28;1215;-61
2022/02/28 04:41:04;;;;;;;;;;;;;;;-0.43;100.00;99761.13;5051224;28;895;-63
2022/02/28 04:43:30;;;;;;;;;;;;;;;-0.39;99.75;99745.78;5051176;28;1902;-63
2022/02/28 04:45:57;;;;;;;;;;;;;;;-0.42;100.00;99716.56;5051245;28;823;-63
2022/02/28 04:48:23;;;;;;;;;;;;;;;-0.42;99.87;99751.88;5051186;28;858;-67
2022/02/28 04:50:55;;;;;;;;;;;;;;;-0.46;100.00;99745.50;5051157;28;864;-67
2022/02/28 04:53:22;;;;;;;;;;;;;;;-0.49;100.00;99774.13;5051514;28;898;-61
2022/02/28 04:55:49;;;;;;;;;;;;;;;-0.48;100.00;99758.63;5051441;28;898;-60
2022/02/28 04:58:17;;;;;;;;;;;;;;;-0.47;100.00;99763.72;5051454;28;792;-65
2022/02/28 05:00:43;;;;;;;;;;;;;;;-0.48;100.00;99783.06;5051260;28;843;-65
2022/02/28 05:03:09;;;;;;;;;;;;;;;-0.49;100.00;99774.13;5051355;28;1944;-63
2022/02/28 05:05:36;;;;;;;;;;;;;;;-0.47;100.00;99774.59;5051163;28;913;-66
2022/02/28 05:08:02;;;;;;;;;;;;;;;-0.47;100.00;99781.91;5053244;28;786;-67
2022/02/28 05:10:29;;;;;;;;;;;;;;;-0.52;100.00;99784.84;5054898;28;839;-68
2022/02/28 05:12:55;;;;;;;;;;;;;;;-0.51;100.00;99781.81;5054890;28;823;-70
2022/02/28 05:15:21;;;;;;;;;;;;;;;-0.48;100.00;99812.94;5054818;28;910;-69
2022/02/28 05:17:48;;;;;;;;;;;;;;;-0.46;100.00;99816.13;5055026;28;963;-70
2022/02/28 05:20:13;;;;;;;;;;;;;;;-0.51;100.00;99814.38;5054961;28;894;-68
2022/02/28 05:22:40;;;;;;;;;;;;;;;-0.47;100.00;99800.94;5054604;28;847;-66
2022/02/28 05:25:06;;;;;;;;;;;;;;;-0.48;100.00;99827.28;5054668;28;1890;-69
2022/02/28 05:27:37;;;;;;;;;;;;;;;-0.46;99.75;99824.25;5054582;28;863;-66
2022/02/28 05:30:04;;;;;;;;;;;;;;;-0.47;99.52;99831.63;5054708;28;799;-64
2022/02/28 05:32:31;;;;;;;;;;;;;;;-0.50;100.00;99826.03;5054544;28;870;-68
2022/02/28 05:34:57;;;;;;;;;;;;;;;-0.47;99.86;99828.91;5054452;28;811;-68
2022/02/28 05:37:23;;;;;;;;;;;;;;;-0.46;99.47;99805.25;5053284;28;1394;-64
2022/02/28 05:39:50;;;;;;;;;;;;;;;-0.50;99.53;99839.63;5054127;28;1206;-63
2022/02/28 05:42:17;;;;;;;;;;;;;;;-0.44;99.19;99830.94;5054292;28;832;-64
2022/02/28 05:44:43;;;;;;;;;;;;;;;-0.44;98.73;99838.31;5054255;28;2013;-63
2022/02/28 05:47:09;;;;;;;;;;;;;;;-0.45;99.21;99863.84;5054226;28;890;-62
2022/02/28 05:49:35;;;;;;;;;;;;;;;-0.45;98.91;99829.38;5054253;28;874;-63
2022/02/28 05:52:02;;;;;;;;;;;;;;;-0.43;98.82;99853.47;5054111;28;815;-63
2022/02/28 05:54:28;;;;;;;;;;;;;;;-0.45;98.86;99845.66;5054034;28;800;-63
2022/02/28 05:56:55;;;;;;;;;;;;;;;-0.46;99.13;99843.28;5054079;28;846;-62
2022/02/28 05:59:21;;;;;;;;;;;;;;;-0.40;98.95;99850.09;5054245;28;878;-63
2022/02/28 06:01:47;;;;;;;;;;;;;;;-0.44;98.48;99849.97;5053974;28;860;-63
2022/02/28 06:04:14;;;;;;;;;;;;;;;-0.46;98.74;99854.91;5053844;28;1886;-61
2022/02/28 06:06:40;;;;;;;;;;;;;;;-0.48;98.70;99851.72;5053885;28;838;-61
2022/02/28 06:09:07;;;;;;;;;;;;;;;-0.43;98.26;99834.44;5053901;28;827;-62
2022/02/28 06:11:33;;;;;;;;;;;;;;;-0.48;98.41;99859.09;5052522;28;1296;-64
2022/02/28 06:14:00;;;;;;;;;;;;;;;-0.42;98.60;99858.56;5053944;28;879;-63
2022/02/28 06:16:26;;;;;;;;;;;;;;;-0.42;98.14;99865.94;5053970;28;1018;-67
2022/02/28 06:18:53;;;;;;;;;;;;;;;-0.43;98.18;99850.75;5053141;28;839;-64
2022/02/28 06:21:20;;;;;;;;;;;;;;;-0.43;98.12;99858.91;5053502;28;867;-64
2022/02/28 06:23:47;;;;;;;;;;;;;;;-0.41;97.89;99845.78;5053534;28;1890;-62
2022/02/28 06:26:13;;;;;;;;;;;;;;;-0.45;97.81;99867.38;5053512;28;839;-64
2022/02/28 06:31:45;;;;;;;;;;;;;;;-0.47;98.22;99860.66;5053141;28;1192;-64
2022/02/28 06:34:13;;;;;;;;;;;;;;;-0.47;98.19;99869.63;5053716;28;839;-65
2022/02/28 06:36:39;;;;;;;;;;;;;;;-0.45;97.85;99861.13;5053268;28;791;-64
2022/02/28 06:39:06;;;;;;;;;;;;;;;-0.45;97.89;99861.13;5053115;28;1249;-64
2022/02/28 06:41:33;;;;;;;;;;;;;;;-0.45;97.65;99875.53;5053269;28;811;-61
2022/02/28 06:44:00;;;;;;;;;;;;;;;-0.44;97.61;99860.03;5053461;28;1914;-62
2022/02/28 06:46:29;;;;;;;;;;;;;;;-0.48;97.91;99856.38;5053204;28;827;-62
2022/02/28 06:48:56;;;;;;;;;;;;;;;-0.44;97.64;99860.81;5053130;28;846;-60
2022/02/28 06:51:22;;;;;;;;;;;;;;;-0.46;97.69;99865.78;5052997;28;866;-62
2022/02/28 06:53:48;;;;;;;;;;;;;;;-0.49;97.93;99855.59;5052942;28;877;-62
2022/02/28 06:56:13;;;;;;;;;;;;;;;-0.47;97.88;99891.34;5052973;28;832;-61
2022/02/28 06:58:40;;;;;;;;;;;;;;;-0.47;97.72;99877.78;5053182;28;886;-61
2022/02/28 07:01:09;;;;;;;;;;;;;;;-0.47;97.67;99869.63;5053678;28;764;-61
2022/02/28 07:03:35;;;;;;;;;;;;;;;-0.47;97.75;99855.25;5052691;28;1949;-65
2022/02/28 07:06:04;;;;;;;;;;;;;;;-0.44;97.74;99876.31;5052991;28;862;-64
2022/02/28 07:08:33;;;;;;;;;;;;;;;-0.47;97.66;99871.53;5052689;28;831;-63
2022/02/28 07:10:59;;;;;;;;;;;;;;;-0.49;98.08;99876.50;5052657;28;827;-64
2022/02/28 07:13:26;;;;;;;;;;;;;;;-0.44;97.47;99862.75;5052651;28;1038;-67
2022/02/28 07:15:54;;;;;;;;;;;;;;;-0.48;97.77;99888.97;5052592;28;831;-66
2022/02/28 07:18:20;;;;;;;;;;;;;;;-0.47;97.85;99847.91;5052927;28;1056;-66
2022/02/28 07:20:47;;;;;;;;;;;;;;;-0.40;97.06;99869.13;5051096;28;1157;-65
2022/02/28 07:23:14;;;;;;;;;;;;;;;-0.46;97.47;99865.78;5052391;28;1882;-64
2022/02/28 07:25:42;;;;;;;;;;;;;;;-0.49;98.06;99888.16;5052321;28;1168;-66
2022/02/28 07:28:08;;;;;;;;;;;;;;;-0.45;97.58;99864.66;5052385;28;799;-65
2022/02/28 07:30:35;;;;;;;;;;;;;;;-0.43;97.83;99856.19;5051428;28;827;-60
2022/02/28 07:33:01;;;;;;;;;;;;;;;-0.40;97.38;99900.91;5052432;28;815;-65
2022/02/28 07:35:27;;;;;;;;;;;;;;;-0.43;97.32;99889.59;5052233;28;903;-67
2022/02/28 07:37:55;;;;;;;;;;;;;;;-0.45;97.72;99893.72;5052090;28;1359;-66
2022/02/28 07:40:21;;;;;;;;;;;;;;;-0.44;97.93;99909.69;5052117;28;843;-65
2022/02/28 07:42:48;;;;;;;;;;;;;;;-0.45;97.81;99889.13;5052082;28;861;-62
2022/02/28 07:45:16;;;;;;;;;;;;;;;-0.40;97.17;99899.00;5052240;28;857;-64
2022/02/28 07:47:42;;;;;;;;;;;;;;;-0.41;97.47;99908.25;5051996;28;882;-65
2022/02/28 07:50:09;;;;;;;;;;;;;;;-0.39;97.45;99916.88;5051954;28;783;-69
2022/02/28 07:52:36;;;;;;;;;;;;;;;-0.43;97.75;99918.63;5051968;28;837;-66
2022/02/28 07:55:04;;;;;;;;;;;;;;;-0.41;97.47;99948.97;5051887;28;807;-63
2022/02/28 07:57:30;;;;;;;;;;;;;;;-0.40;97.47;99895.50;5051770;28;906;-67
2022/02/28 07:59:57;;;;;;;;;;;;;;;-0.37;96.96;99894.81;5051842;28;819;-67
2022/02/28 08:02:23;;;;;;;;;;;;;;;-0.38;97.35;99926.63;5051826;28;937;-65
2022/02/28 08:04:50;;;;;;;;;;;;;;;-0.35;97.40;99908.88;5050420;28;1890;-66
2022/02/28 08:07:17;;;;;;;;;;;;;;;-0.32;96.75;99933.47;5051900;28;819;-68
2022/02/28 08:09:43;;;;;;;;;;;;;;;-0.30;96.73;99931.22;5050624;28;1402;-66
2022/02/28 08:12:10;;;;;;;;;;;;;;;-0.32;97.21;99921.78;5052032;28;803;-66
2022/02/28 08:14:39;;;;;;;;;;;;;;;-0.28;96.60;99912.69;5052301;28;803;-66
2022/02/28 08:17:05;;;;;;;;;;;;;;;-0.33;96.87;99909.34;5051765;28;910;-69
2022/02/28 08:19:32;;;;;;;;;;;;;;;-0.31;96.99;99920.69;5051802;28;894;-68
2022/02/28 08:21:59;;;;;;;;;;;;;;;-0.30;96.66;99914.09;5051811;28;862;-69
2022/02/28 08:24:25;;;;;;;;;;;;;;;-0.31;97.64;99918.75;5051794;28;1881;-69
2022/02/28 08:26:52;;;;;;;;;;;;;;;-0.25;96.95;99905.78;5051635;28;836;-72
2022/02/28 08:29:18;;;;;;;;;;;;;;;-0.24;96.27;99926.38;5050360;28;1294;-69
2022/02/28 08:31:45;;;;;;;;;;;;;;;-0.27;96.93;99910.75;5051835;28;831;-68
2022/02/28 08:34:12;;;;;;;;;;;;;;;-0.22;96.19;99935.81;5051808;28;787;-68
2022/02/28 08:36:38;;;;;;;;;;;;;;;-0.25;96.37;99941.91;5051370;28;831;-72
2022/02/28 08:39:05;;;;;;;;;;;;;;;-0.18;96.01;99927.00;5049084;28;1298;-68
2022/02/28 08:41:32;;;;;;;;;;;;;;;-0.22;96.48;99918.72;5051971;28;827;-70
2022/02/28 08:43:59;;;;;;;;;;;;;;;-0.21;95.69;99918.41;5055417;28;1914;-67
2022/02/28 08:46:25;;;;;;;;;;;;;;;-0.20;96.01;99908.31;5054199;28;1622;-67
2022/02/28 08:48:52;;;;;;;;;;;;;;;-0.19;95.68;99928.13;5055296;28;807;-62
2022/02/28 08:51:18;;;;;;;;;;;;;;;-0.21;96.34;99936.63;5055276;28;1046;-65
2022/02/28 08:53:45;;;;;;;;;;;;;;;-0.21;96.66;99928.47;5055300;28;807;-65
2022/02/28 08:56:11;;;;;;;;;;;;;;;-0.13;95.95;99922.16;5055112;28;880;-64
2022/02/28 08:58:38;;;;;;;;;;;;;;;-0.17;96.08;99906.84;5055188;28;858;-68
2022/02/28 09:01:04;;;;;;;;;;;;;;;-0.16;96.25;99922.84;5055089;28;882;-65
2022/02/28 09:03:30;;;;;;;;;;;;;;;-0.11;96.48;99916.41;5054967;28;1881;-62
2022/02/28 09:05:57;;;;;;;;;;;;;;;-0.07;95.40;99939.09;5055028;28;819;-63
2022/02/28 09:08:23;;;;;;;;;;;;;;;0.00;95.42;99936.69;5054918;28;827;-63
2022/02/28 09:10:49;;;;;;;;;;;;;;;0.01;95.41;99940.97;5055002;28;879;-65
2022/02/28 09:13:16;;;;;;;;;;;;;;;0.09;94.88;99942.84;5054856;28;850;-59
2022/02/28 09:15:50;;;;;;;;;;;;;;;0.12;94.53;99944.91;5054960;28;886;-74
2022/02/28 09:18:16;;;;;;;;;;;;;;;0.16;94.67;99939.63;5055082;28;986;-68
2022/02/28 09:20:43;;;;;;;;;;;;;;;0.29;94.09;99930.41;5053612;28;1496;-68
2022/02/28 09:23:09;;;;;;;;;;;;;;;0.31;93.13;99924.66;5054580;28;1909;-71
2022/02/28 09:25:36;;;;;;;;;;;;;;;0.32;93.99;99916.16;5054765;28;866;-67
2022/02/28 09:28:03;;;;;;;;;;;;;;;0.37;94.13;99950.53;5054661;28;831;-70
2022/02/28 09:30:29;;;;;;;;;;;;;;;0.38;93.81;99925.72;5054718;28;795;-70
2022/02/28 09:32:56;;;;;;;;;;;;;;;0.43;92.70;99938.31;5053274;28;1174;-64
2022/02/28 09:35:24;;;;;;;;;;;;;;;0.45;92.43;99861.81;5054787;28;866;-65
2022/02/28 09:38:06;;;;;;;;;;;;;;;0.47;91.56;99922.94;5053236;28;1049;-71
2022/02/28 09:44:10;;;;;;;;;;;;;;;0.82;89.91;99909.81;5054377;28;1980;-74
2022/02/28 09:46:53;;;;;;;;;;;;;;;0.74;90.94;99970.56;5054267;28;1102;-61
2022/02/28 09:49:19;;;;;;;;;;;;;;;0.66;91.49;99932.53;5054145;28;823;-60
2022/02/28 09:51:46;;;;;;;;;;;;;;;0.64;91.24;99943.78;5054269;28;846;-61
2022/02/28 09:54:12;;;;;;;;;;;;;;;0.71;91.55;99935.06;5053229;28;807;-61
2022/02/28 09:56:39;;;;;;;;;;;;;;;0.74;90.76;99931.69;5054331;28;870;-62
2022/02/28 09:59:05;;;;;;;;;;;;;;;0.80;90.59;99941.22;5054102;28;1027;-64
2022/02/28 10:01:31;;;;;;;;;;;;;;;0.87;89.25;99951.56;5053976;28;903;-63
2022/02/28 10:03:58;;;;;;;;;;;;;;;0.85;89.52;99938.28;5053940;28;1885;-62
2022/02/28 10:06:24;;;;;;;;;;;;;;;0.91;90.44;99912.47;5053946;28;811;-61
2022/02/28 10:08:52;;;;;;;;;;;;;;;0.97;88.59;99941.06;5053859;28;815;-67
2022/02/28 10:11:39;;;;;;;;;;;;;;;0.99;88.35;99941.53;5053820;28;850;-65
2022/02/28 10:14:06;;;;;;;;;;;;;;;1.01;88.55;99946.66;5053881;28;893;-66
2022/02/28 10:16:43;;;;;;;;;;;;;;;1.12;88.57;99927.97;5053753;28;882;-63
2022/02/28 10:19:14;;;;;;;;;;;;;;;1.12;88.57;99873.53;5053682;28;823;-60
2022/02/28 10:21:51;;;;;;;;;;;;;;;1.16;88.38;99864.34;5053850;28;799;-58
2022/02/28 10:24:23;;;;;;;;;;;;;;;1.20;87.44;99937.97;5053516;28;1944;-62
2022/02/28 10:26:56;;;;;;;;;;;;;;;1.27;88.25;99940.94;5053515;28;886;-62
2022/02/28 10:29:25;;;;;;;;;;;;;;;1.34;87.94;99935.72;5053612;28;854;-61
2022/02/28 10:31:51;;;;;;;;;;;;;;;1.38;87.85;99935.88;5053404;28;839;-61
2022/02/28 10:34:24;;;;;;;;;;;;;;;1.45;87.62;99919.75;5052116;28;1167;-61
2022/02/28 10:37:00;;;;;;;;;;;;;;;1.51;86.51;99926.56;5053355;28;842;-59
2022/02/28 10:39:28;;;;;;;;;;;;;;;1.31;86.66;99914.63;5051846;28;1253;-59
2022/02/28 10:41:58;;;;;;;;;;;;;;;1.41;86.72;99919.66;5053249;28;827;-61
2022/02/28 10:44:24;;;;;;;;;;;;;;;1.51;87.78;99910.22;5053624;28;1965;-61
2022/02/28 10:46:51;;;;;;;;;;;;;;;1.49;87.35;99922.59;5053056;28;874;-60
2022/02/28 10:49:20;;;;;;;;;;;;;;;1.63;86.67;99923.09;5053371;28;806;-59
2022/02/28 10:52:03;;;;;;;;;;;;;;;1.83;86.71;99943.19;5053358;28;886;-59
2022/02/28 10:54:34;;;;;;;;;;;;;;;1.78;85.22;99936.03;5052960;28;910;-59
2022/02/28 10:57:28;;;;;;;;;;;;;;;1.75;86.21;99923.09;5053536;28;776;-59
2022/02/28 10:59:55;;;;;;;;;;;;;;;1.89;85.90;99914.56;5052863;28;815;-58
2022/02/28 11:14:32;;;;;;;;;;;;;;;1.47;84.61;99942.00;5052987;28;579;-61
2022/02/28 11:16:59;;;;;;;;;;;;;;;1.53;85.10;99946.09;5052720;28;935;-59
2022/02/28 11:19:25;;;;;;;;;;;;;;;1.59;85.47;99946.69;5052674;28;798;-61
2022/02/28 11:24:54;;;;;;;;;;;;;;;1.42;85.52;99940.28;5052413;28;1967;-60
2022/02/28 11:27:21;;;;;;;;;;;;;;;1.48;84.06;99937.38;5052405;28;854;-59
2022/02/28 11:42:06;;;;;;;;;;;;;;;1.68;84.27;99939.19;5047328;28;1123;-60
2022/02/28 11:44:37;;;;;;;;;;;;;;;1.93;84.57;99920.13;5052251;28;1910;-59
2022/02/28 11:59:21;;;;;;;;;;;;;;;1.90;82.66;100013.50;5052201;28;677;-60
2022/02/28 12:02:10;;;;;;;;;;;;;;;1.90;82.15;99981.59;5051824;28;878;-60
2022/02/28 12:04:43;;;;;;;;;;;;;;;1.82;82.99;99996.91;5051716;28;1961;-60
2022/02/28 12:07:29;;;;;;;;;;;;;;;1.87;81.91;100009.50;5051671;28;850;-60
2022/02/28 12:10:07;;;;;;;;;;;;;;;1.89;81.21;100018.16;5051700;28;835;-61
2022/02/28 12:12:38;;;;;;;;;;;;;;;1.72;81.79;100034.69;5051787;28;815;-60
2022/02/28 12:15:04;;;;;;;;;;;;;;;1.67;81.56;100004.94;5051737;28;831;-59
2022/02/28 12:17:42;;;;;;;;;;;;;;;1.73;81.58;100022.66;5051635;28;925;-60
2022/02/28 12:20:14;;;;;;;;;;;;;;;1.78;82.24;100022.47;5051441;28;816;-59
2022/02/28 12:22:55;;;;;;;;;;;;;;;1.96;82.06;100042.94;5051530;28;874;-59
2022/02/28 12:25:31;;;;;;;;;;;;;;;2.09;82.25;100051.13;5051422;28;1886;-59
2022/02/28 12:28:12;;;;;;;;;;;;;;;2.13;81.40;100011.13;5051464;28;905;-59
2022/02/28 12:30:40;;;;;;;;;;;;;;;2.43;80.53;100049.88;5051398;28;862;-59
2022/02/28 12:33:09;;;;;;;;;;;;;;;2.47;80.27;100039.88;5051672;28;843;-58
2022/02/28 12:36:00;;;;;;;;;;;;;;;2.27;79.29;100049.78;5051362;28;929;-58
2022/02/28 12:38:27;;;;;;;;;;;;;;;1.99;79.85;100071.44;5050770;28;1563;-59
2022/02/28 12:40:58;;;;;;;;;;;;;;;2.00;80.99;100068.38;5051097;28;1296;-59
2022/02/28 12:43:25;;;;;;;;;;;;;;;2.15;79.82;100066.91;5051701;28;1891;-57
2022/02/28 12:45:54;;;;;;;;;;;;;;;1.95;80.68;100062.34;5051457;28;847;-58
2022/02/28 12:48:22;;;;;;;;;;;;;;;1.81;81.76;100071.66;5049929;28;1321;-59
2022/02/28 12:50:50;;;;;;;;;;;;;;;1.80;81.39;100080.16;5051272;28;913;-59
2022/02/28 12:53:20;;;;;;;;;;;;;;;1.69;80.63;100096.13;5051217;28;815;-59
2022/02/28 12:56:02;;;;;;;;;;;;;;;1.70;80.91;100084.09;5051305;28;819;-59
2022/02/28 12:58:31;;;;;;;;;;;;;;;1.83;81.75;100095.81;5051339;28;851;-59
2022/02/28 13:01:13;;;;;;;;;;;;;;;1.73;80.67;100091.59;5051153;28;846;-59
2022/02/28 13:03:43;;;;;;;;;;;;;;;1.70;80.94;100103.16;5050992;28;1918;-59
2022/02/28 13:06:11;;;;;;;;;;;;;;;1.74;81.15;100100.56;5051337;28;819;-59
2022/02/28 13:08:42;;;;;;;;;;;;;;;1.67;81.78;100105.78;5051380;28;838;-58
2022/02/28 13:11:14;;;;;;;;;;;;;;;1.51;81.02;100090.03;5051099;28;803;-58
2022/02/28 13:13:40;;;;;;;;;;;;;;;1.49;82.29;100132.34;5051031;28;866;-59
2022/02/28 13:16:09;;;;;;;;;;;;;;;1.46;82.05;100117.47;5050963;28;877;-59
2022/02/28 13:19:05;;;;;;;;;;;;;;;1.65;82.08;100117.00;5051120;28;866;-59
2022/02/28 13:21:52;;;;;;;;;;;;;;;1.53;81.60;100122.41;5051221;28;842;-59
2022/02/28 13:24:20;;;;;;;;;;;;;;;1.41;81.76;100120.41;5050686;28;1890;-59
2022/02/28 13:26:46;;;;;;;;;;;;;;;1.34;80.73;100126.38;5049616;28;1992;-59
2022/02/28 13:29:13;;;;;;;;;;;;;;;1.31;81.63;100137.94;5052536;28;894;-60
2022/02/28 13:31:42;;;;;;;;;;;;;;;1.33;82.16;100132.97;5054529;28;879;-59
2022/02/28 13:34:09;;;;;;;;;;;;;;;1.52;81.35;100142.59;5054859;28;807;-60
2022/02/28 13:36:39;;;;;;;;;;;;;;;1.49;81.16;100144.03;5054591;28;846;-59
2022/02/28 13:39:07;;;;;;;;;;;;;;;1.48;81.65;100152.56;5053762;28;1244;-59
2022/02/28 13:41:43;;;;;;;;;;;;;;;1.41;82.30;100143.00;5052809;28;1472;-59
2022/02/28 13:44:12;;;;;;;;;;;;;;;1.59;81.68;100140.91;5054259;28;1983;-59
2022/02/28 13:46:53;;;;;;;;;;;;;;;1.51;81.42;100147.22;5054259;28;913;-59
2022/02/28 13:49:19;;;;;;;;;;;;;;;1.40;80.78;100140.59;5054304;28;968;-59
2022/02/28 13:51:58;;;;;;;;;;;;;;;1.31;81.30;100142.59;5054442;28;925;-59
2022/02/28 13:54:25;;;;;;;;;;;;;;;1.27;81.93;100139.75;5054128;28;795;-59